HEAX/ALY METAR and TAF weather

Enter ICAO airport designator
Station Type Date Time Source
HEAX METAR 2019/04/25 21:00 UTC NOAA

HEAX 252100Z 03006KT CAVOK 19/11 Q1020 NOSIG


Station Type Date Time Source
HEAX Decoded METAR 2019/04/25 21:00 UTC NOAA

Alexandria / Nouzha, Egypt (HEAX) 31-12N 029-57E 7M
Apr 25, 2019 - 05:00 PM EDT / 2019.04.25 2100 UTC
Wind: from the NNE (030 degrees) at 7 MPH (6 KT):0
Visibility: greater than 7 mile(s):0
Temperature: 66 F (19 C)
Dew Point: 51 F (11 C)
Relative Humidity: 59%
Pressure (altimeter): 30.12 in. Hg (1020 hPa)
ob: HEAX 252100Z 03006KT CAVOK 19/11 Q1020 NOSIG
cycle: 21

Station Type Date Time Source
HEAX TAF 2019/04/25 18:56 UTC NOAA

TAF HEAX 251700Z 2518/2624 04010KT 9999 FEW020
TEMPO 2603/2606 VRB03KT 4000 BR NSC

Example: see airport list